createdAt,value
2023-05-10T00:00:08.923Z,13.15
2023-05-10T00:01:08.902Z,13.17
2023-05-10T00:02:08.917Z,13.11
2023-05-10T00:03:08.966Z,13.12
2023-05-10T00:04:08.964Z,13.09
2023-05-10T00:05:08.875Z,13.09
2023-05-10T00:06:08.836Z,13.06
2023-05-10T00:07:08.829Z,13.06
2023-05-10T00:08:08.829Z,13.00
2023-05-10T00:09:08.851Z,12.96
2023-05-10T00:10:08.805Z,12.95
2023-05-10T00:11:08.784Z,12.96
2023-05-10T00:12:08.790Z,12.87
2023-05-10T00:13:08.819Z,12.87
2023-05-10T00:14:08.751Z,12.87
2023-05-10T00:15:08.780Z,12.84
2023-05-10T00:16:08.819Z,12.77
2023-05-10T00:17:08.723Z,12.82
2023-05-10T00:18:08.796Z,12.78
2023-05-10T00:19:08.729Z,12.78
2023-05-10T00:20:08.682Z,12.87
2023-05-10T00:21:08.674Z,12.85
2023-05-10T00:22:08.689Z,12.85
2023-05-10T00:23:08.735Z,12.84
2023-05-10T00:24:08.642Z,12.82
2023-05-10T00:25:08.672Z,12.88
2023-05-10T00:26:08.627Z,12.69
2023-05-10T00:27:08.607Z,12.82
2023-05-10T00:28:08.664Z,12.74
2023-05-10T00:29:08.606Z,12.81
2023-05-10T00:30:08.579Z,12.75
2023-05-10T00:31:08.588Z,12.81
2023-05-10T00:32:08.579Z,12.63
2023-05-10T00:33:08.582Z,12.63
2023-05-10T00:34:08.556Z,12.66
2023-05-10T00:35:08.531Z,12.49
2023-05-10T00:36:08.512Z,12.45
2023-05-10T00:37:08.501Z,12.37
2023-05-10T00:38:08.539Z,12.39
2023-05-10T00:39:08.502Z,12.45
2023-05-10T00:40:08.467Z,12.33
2023-05-10T00:41:08.468Z,12.33
2023-05-10T00:42:08.459Z,12.27
2023-05-10T00:43:08.460Z,12.26
2023-05-10T00:44:08.430Z,12.19
2023-05-10T00:45:08.416Z,12.16
2023-05-10T00:46:08.444Z,12.20
2023-05-10T00:47:08.438Z,12.16
2023-05-10T00:48:08.415Z,12.23
2023-05-10T00:49:08.396Z,12.16
2023-05-10T00:50:08.371Z,12.15
2023-05-10T00:51:08.368Z,12.12
2023-05-10T00:52:08.358Z,12.09
2023-05-10T00:53:08.354Z,12.16
2023-05-10T00:54:08.322Z,12.06
2023-05-10T00:55:08.312Z,12.15
2023-05-10T00:56:08.297Z,12.21
2023-05-10T00:57:08.307Z,12.24
2023-05-10T00:58:08.278Z,12.24
2023-05-10T00:59:08.268Z,12.15
2023-05-10T01:00:08.256Z,12.11
2023-05-10T01:01:08.332Z,12.11
2023-05-10T01:02:08.284Z,12.02
2023-05-10T01:03:08.300Z,12.09
2023-05-10T01:04:08.213Z,12.05
2023-05-10T01:05:08.247Z,12.02
2023-05-10T01:06:08.218Z,11.96
2023-05-10T01:07:08.183Z,12.02
2023-05-10T01:08:08.169Z,11.96
2023-05-10T01:09:08.173Z,11.94
2023-05-10T01:10:08.164Z,11.96
2023-05-10T01:11:08.153Z,11.99
2023-05-10T01:12:08.204Z,11.82
2023-05-10T01:13:08.170Z,11.96
2023-05-10T01:14:08.115Z,11.97
2023-05-10T01:15:08.117Z,12.11
2023-05-10T01:16:08.164Z,12.06
2023-05-10T01:17:08.081Z,12.11
2023-05-10T01:18:08.073Z,12.08
2023-05-10T01:19:08.069Z,12.06
2023-05-10T01:20:08.064Z,11.96
2023-05-10T01:21:08.045Z,11.85
2023-05-10T01:22:08.018Z,11.87
2023-05-10T01:23:08.012Z,11.80
2023-05-10T01:24:07.999Z,11.77
2023-05-10T01:25:08.003Z,11.82
2023-05-10T01:26:07.976Z,11.80
2023-05-10T01:27:07.971Z,11.82
2023-05-10T01:28:07.955Z,11.71
2023-05-10T01:29:07.947Z,11.71
2023-05-10T01:30:15.596Z,11.71
2023-05-10T01:31:08.939Z,11.67
2023-05-10T01:32:07.912Z,11.64
2023-05-10T01:33:07.937Z,11.70
2023-05-10T01:34:07.897Z,11.72
2023-05-10T01:35:07.909Z,11.71
2023-05-10T01:36:07.886Z,11.67
2023-05-10T01:37:07.857Z,11.70
2023-05-10T01:38:07.843Z,11.72
2023-05-10T01:39:07.851Z,11.70
2023-05-10T01:40:07.824Z,11.72
2023-05-10T01:41:07.814Z,11.62
2023-05-10T01:42:07.800Z,11.64
2023-05-10T01:43:07.790Z,11.53
2023-05-10T01:44:07.794Z,11.52
2023-05-10T01:45:07.825Z,11.52
2023-05-10T01:46:07.756Z,11.65
2023-05-10T01:47:07.745Z,11.54
2023-05-10T01:48:07.891Z,11.59
2023-05-10T01:49:07.742Z,11.59
2023-05-10T01:50:07.710Z,11.57
2023-05-10T01:51:07.719Z,11.53
2023-05-10T01:52:07.719Z,11.50
2023-05-10T01:53:07.693Z,11.46
2023-05-10T01:54:07.661Z,11.52
2023-05-10T01:55:07.663Z,11.56
2023-05-10T01:56:07.646Z,11.49
2023-05-10T01:57:07.650Z,11.59
2023-05-10T01:58:07.648Z,11.61
2023-05-10T01:59:07.616Z,11.56
2023-05-10T02:00:07.597Z,11.52
2023-05-10T02:01:07.597Z,11.47
2023-05-10T02:02:07.590Z,11.44
2023-05-10T02:03:07.803Z,11.39
2023-05-10T02:04:07.606Z,11.38
2023-05-10T02:05:07.546Z,11.34
2023-05-10T02:06:07.535Z,11.35
2023-05-10T02:07:07.551Z,11.31
2023-05-10T02:08:07.509Z,11.27
2023-05-10T02:09:07.499Z,11.31
2023-05-10T02:10:07.489Z,11.29
2023-05-10T02:11:07.476Z,11.28
2023-05-10T02:12:07.474Z,11.28
2023-05-10T02:13:07.548Z,11.31
2023-05-10T02:14:07.444Z,11.27
2023-05-10T02:15:07.456Z,11.10
2023-05-10T02:16:07.525Z,11.17
2023-05-10T02:17:07.429Z,11.16
2023-05-10T02:18:07.489Z,11.20
2023-05-10T02:19:07.392Z,11.16
2023-05-10T02:20:07.381Z,11.14
2023-05-10T02:21:07.391Z,11.13
2023-05-10T02:22:07.358Z,11.10
2023-05-10T02:23:07.373Z,11.01
2023-05-10T02:24:07.352Z,11.03
2023-05-10T02:25:07.346Z,11.11
2023-05-10T02:26:07.318Z,11.06
2023-05-10T02:27:07.315Z,11.10
2023-05-10T02:28:07.298Z,11.01
2023-05-10T02:29:07.284Z,10.95
2023-05-10T02:30:07.284Z,10.92
2023-05-10T02:31:07.282Z,10.92
2023-05-10T02:32:07.336Z,10.95
2023-05-10T02:33:07.357Z,10.95
2023-05-10T02:34:07.229Z,10.92
2023-05-10T02:35:07.235Z,10.80
2023-05-10T02:36:07.226Z,10.83
2023-05-10T02:37:07.202Z,10.83
2023-05-10T02:38:07.188Z,10.91
2023-05-10T02:39:07.207Z,10.89
2023-05-10T02:40:07.183Z,10.84
2023-05-10T02:41:07.166Z,10.84
2023-05-10T02:42:07.154Z,10.81
2023-05-10T02:43:07.130Z,10.83
2023-05-10T02:44:07.133Z,10.84
2023-05-10T02:45:07.112Z,10.80
2023-05-10T02:46:07.127Z,10.89
2023-05-10T02:47:07.098Z,10.94
2023-05-10T02:48:07.117Z,10.94
2023-05-10T02:49:07.093Z,10.83
2023-05-10T02:50:07.057Z,10.89
2023-05-10T02:51:07.053Z,10.86
2023-05-10T02:52:07.039Z,10.84
2023-05-10T02:53:07.052Z,10.94
2023-05-10T02:54:07.024Z,10.92
2023-05-10T02:55:07.032Z,10.89
2023-05-10T02:56:06.992Z,10.77
2023-05-10T02:57:06.980Z,10.73
2023-05-10T02:58:06.996Z,10.71
2023-05-10T02:59:06.958Z,10.73
2023-05-10T03:00:06.955Z,10.70
2023-05-10T03:01:06.953Z,10.63
2023-05-10T03:02:06.943Z,10.76
2023-05-10T03:03:06.980Z,10.68
2023-05-10T03:04:06.971Z,10.83
2023-05-10T03:05:06.908Z,10.78
2023-05-10T03:06:06.883Z,10.88
2023-05-10T03:07:06.903Z,10.78
2023-05-10T03:08:06.888Z,10.65
2023-05-10T03:09:06.858Z,10.71
2023-05-10T03:10:06.840Z,10.63
2023-05-10T03:11:06.858Z,10.59
2023-05-10T03:12:06.850Z,10.58
2023-05-10T03:13:06.880Z,10.56
2023-05-10T03:14:06.802Z,10.47
2023-05-10T03:15:06.791Z,10.60
2023-05-10T03:16:06.796Z,10.56
2023-05-10T03:17:06.796Z,10.53
2023-05-10T03:18:06.792Z,10.53
2023-05-10T03:19:06.749Z,10.62
2023-05-10T03:20:06.734Z,10.62
2023-05-10T03:21:06.744Z,10.70
2023-05-10T03:22:06.733Z,10.78
2023-05-10T03:23:06.704Z,10.78
2023-05-10T03:24:06.694Z,10.83
2023-05-10T03:25:06.728Z,10.81
2023-05-10T03:26:06.686Z,10.88
2023-05-10T03:27:06.707Z,10.84
2023-05-10T03:28:06.653Z,10.71
2023-05-10T03:29:06.651Z,10.71
2023-05-10T03:30:06.668Z,10.68
2023-05-10T03:31:06.687Z,10.71
2023-05-10T03:32:06.607Z,10.68
2023-05-10T03:33:06.666Z,10.56
2023-05-10T03:34:06.586Z,10.63
2023-05-10T03:35:06.578Z,10.68
2023-05-10T03:36:06.581Z,10.66
2023-05-10T03:37:06.603Z,10.74
2023-05-10T03:38:06.545Z,10.80
2023-05-10T03:39:06.540Z,10.78
2023-05-10T03:40:06.540Z,10.74
2023-05-10T03:41:06.527Z,10.77
2023-05-10T03:42:06.510Z,10.84
2023-05-10T03:43:06.537Z,10.86
2023-05-10T03:44:06.490Z,10.86
2023-05-10T03:45:06.479Z,10.88
2023-05-10T03:46:06.463Z,10.98
2023-05-10T03:47:06.514Z,10.92
2023-05-10T03:48:06.483Z,10.95
2023-05-10T03:49:06.443Z,10.84
2023-05-10T03:50:06.432Z,10.81
2023-05-10T03:51:06.404Z,10.95
2023-05-10T03:52:06.415Z,11.07
2023-05-10T03:53:06.381Z,10.95
2023-05-10T03:54:06.396Z,10.98
2023-05-10T03:55:06.374Z,10.91
2023-05-10T03:56:06.351Z,10.96
2023-05-10T03:57:06.339Z,11.06
2023-05-10T03:58:06.331Z,11.16
2023-05-10T03:59:06.359Z,11.20
2023-05-10T04:00:06.314Z,11.27
2023-05-10T04:01:06.319Z,11.25
2023-05-10T04:02:06.355Z,11.25
2023-05-10T04:03:06.384Z,11.28
2023-05-10T04:04:06.330Z,11.21
2023-05-10T04:05:06.253Z,11.14
2023-05-10T04:06:06.313Z,11.21
2023-05-10T04:07:06.286Z,11.16
2023-05-10T04:08:06.250Z,11.19
2023-05-10T04:09:06.220Z,11.17
2023-05-10T04:10:06.196Z,11.17
2023-05-10T04:11:06.202Z,11.17
2023-05-10T04:12:07.102Z,11.32
2023-05-10T04:13:06.270Z,11.32
2023-05-10T04:14:06.167Z,11.29
2023-05-10T04:15:06.268Z,11.31
2023-05-10T04:16:06.129Z,11.41
2023-05-10T04:17:06.210Z,11.39
2023-05-10T04:18:08.712Z,11.34
2023-05-10T04:19:06.099Z,11.34
2023-05-10T04:20:06.094Z,11.36
2023-05-10T04:21:06.076Z,11.39
2023-05-10T04:22:06.096Z,11.54
2023-05-10T04:23:06.075Z,11.50
2023-05-10T04:24:06.068Z,11.64
2023-05-10T04:25:06.034Z,11.65
2023-05-10T04:26:06.018Z,11.75
2023-05-10T04:27:06.025Z,11.83
2023-05-10T04:28:06.043Z,11.93
2023-05-10T04:29:06.001Z,12.12
2023-05-10T04:30:05.986Z,12.09
2023-05-10T04:31:06.058Z,12.11
2023-05-10T04:32:05.983Z,12.09
2023-05-10T04:33:05.973Z,12.09
2023-05-10T04:34:05.945Z,12.12
2023-05-10T04:35:05.924Z,12.06
2023-05-10T04:36:05.933Z,12.11
2023-05-10T04:37:05.919Z,12.11
2023-05-10T04:38:05.895Z,12.24
2023-05-10T04:39:05.875Z,12.16
2023-05-10T04:40:05.886Z,12.29
2023-05-10T04:41:05.902Z,12.29
2023-05-10T04:42:05.849Z,12.26
2023-05-10T04:43:05.836Z,12.29
2023-05-10T04:44:05.826Z,12.30
2023-05-10T04:45:05.812Z,12.39
2023-05-10T04:46:05.948Z,12.51
2023-05-10T04:47:05.826Z,12.62
2023-05-10T04:48:05.857Z,12.71
2023-05-10T04:49:05.773Z,12.60
2023-05-10T04:50:05.770Z,12.70
2023-05-10T04:51:05.844Z,12.67
2023-05-10T04:52:05.737Z,12.67
2023-05-10T04:53:05.731Z,12.69
2023-05-10T04:54:06.817Z,12.79
2023-05-10T04:55:05.724Z,12.81
2023-05-10T04:56:05.710Z,12.77
2023-05-10T04:57:05.683Z,12.84
2023-05-10T04:58:05.673Z,12.88
2023-05-10T04:59:05.658Z,12.93
2023-05-10T05:00:05.651Z,13.02
2023-05-10T05:01:05.657Z,13.09
2023-05-10T05:02:05.811Z,13.07
2023-05-10T05:03:05.700Z,13.11
2023-05-10T05:04:05.606Z,13.17
2023-05-10T05:05:05.620Z,13.24
2023-05-10T05:06:05.594Z,13.21
2023-05-10T05:07:05.583Z,13.38
2023-05-10T05:08:05.580Z,13.41
2023-05-10T05:09:05.553Z,13.43
2023-05-10T05:10:05.555Z,13.46
2023-05-10T05:11:05.529Z,13.58
2023-05-10T05:12:05.525Z,13.58
2023-05-10T05:13:05.540Z,13.74
2023-05-10T05:14:05.512Z,13.91
2023-05-10T05:15:06.317Z,13.94
2023-05-10T05:16:05.512Z,14.04
2023-05-10T05:17:05.464Z,14.04
2023-05-10T05:18:05.512Z,14.21
2023-05-10T05:19:05.488Z,14.27
2023-05-10T05:20:05.432Z,14.20
2023-05-10T05:21:05.421Z,14.27
2023-05-10T05:22:05.411Z,14.24
2023-05-10T05:23:05.400Z,14.37
2023-05-10T05:24:05.421Z,14.46
2023-05-10T05:25:05.377Z,14.46
2023-05-10T05:26:05.368Z,14.50
2023-05-10T05:27:05.353Z,14.52
2023-05-10T05:28:05.360Z,14.46
2023-05-10T05:29:05.391Z,14.56
2023-05-10T05:30:05.327Z,14.53
2023-05-10T05:31:05.343Z,14.50
2023-05-10T05:32:05.361Z,14.64
2023-05-10T05:33:05.413Z,14.65
2023-05-10T05:34:05.281Z,14.67
2023-05-10T05:35:05.303Z,14.81
2023-05-10T05:36:05.268Z,14.83
2023-05-10T05:37:05.254Z,14.88
2023-05-10T05:38:05.247Z,14.98
2023-05-10T05:39:05.227Z,15.01
2023-05-10T05:40:05.216Z,15.02
2023-05-10T05:41:05.216Z,15.08
2023-05-10T05:42:05.194Z,15.09
2023-05-10T05:43:05.209Z,15.27
2023-05-10T05:44:05.191Z,15.35
2023-05-10T05:45:05.158Z,15.48
2023-05-10T05:46:05.201Z,15.48
2023-05-10T05:47:05.215Z,15.60
2023-05-10T05:48:05.147Z,15.63
2023-05-10T05:49:05.119Z,15.57
2023-05-10T05:50:05.117Z,15.46
2023-05-10T05:51:07.137Z,15.52
2023-05-10T05:52:05.129Z,15.45
2023-05-10T05:53:05.066Z,15.30
2023-05-10T05:54:05.062Z,15.33
2023-05-10T05:55:05.068Z,15.48
2023-05-10T05:56:05.043Z,15.43
2023-05-10T05:57:05.043Z,15.48
2023-05-10T05:58:05.017Z,15.54
2023-05-10T05:59:05.015Z,15.57
2023-05-10T06:00:04.996Z,15.60
2023-05-10T06:01:05.001Z,15.52
2023-05-10T06:02:05.066Z,15.54
2023-05-10T06:03:05.119Z,15.52
2023-05-10T06:04:05.151Z,15.57
2023-05-10T06:05:05.039Z,15.81
2023-05-10T06:06:04.931Z,15.78
2023-05-10T06:07:04.984Z,15.79
2023-05-10T06:08:04.926Z,15.67
2023-05-10T06:09:04.899Z,15.64
2023-05-10T06:10:04.889Z,15.60
2023-05-10T06:11:04.946Z,15.75
2023-05-10T06:12:04.890Z,15.86
2023-05-10T06:13:04.990Z,15.99
2023-05-10T06:14:04.845Z,15.97
2023-05-10T06:15:04.839Z,16.15
2023-05-10T06:16:04.929Z,16.16
2023-05-10T06:17:05.076Z,15.97
2023-05-10T06:18:04.851Z,15.93
2023-05-10T06:19:04.793Z,15.89
2023-05-10T06:20:04.804Z,15.86
2023-05-10T06:21:04.828Z,15.89
2023-05-10T06:22:04.759Z,15.85
2023-05-10T06:23:04.922Z,15.96
2023-05-10T06:24:04.738Z,15.84
2023-05-10T06:25:04.744Z,15.96
2023-05-10T06:26:04.749Z,15.97
2023-05-10T06:27:04.715Z,16.04
2023-05-10T06:28:04.711Z,16.16
2023-05-10T06:29:04.683Z,16.37
2023-05-10T06:30:12.426Z,16.38
2023-05-10T06:31:05.679Z,16.34
2023-05-10T06:32:04.648Z,16.60
2023-05-10T06:33:04.679Z,16.65
2023-05-10T06:34:04.636Z,16.63
2023-05-10T06:35:04.643Z,16.65
2023-05-10T06:36:04.638Z,16.71
2023-05-10T06:37:04.596Z,16.88
2023-05-10T06:38:04.579Z,16.93
2023-05-10T06:39:04.609Z,17.06
2023-05-10T06:40:04.645Z,17.08
2023-05-10T06:41:04.556Z,17.15
2023-05-10T06:42:04.539Z,17.29
2023-05-10T06:43:04.547Z,17.32
2023-05-10T06:44:04.524Z,17.29
2023-05-10T06:45:04.520Z,17.32
2023-05-10T06:46:04.515Z,17.26
2023-05-10T06:47:04.484Z,17.44
2023-05-10T06:48:04.588Z,17.44
2023-05-10T06:49:04.504Z,17.57
2023-05-10T06:50:04.459Z,17.92
2023-05-10T06:51:04.446Z,18.15
2023-05-10T06:52:04.432Z,18.03
2023-05-10T06:53:04.478Z,18.07
2023-05-10T06:54:04.460Z,18.24
2023-05-10T06:55:04.538Z,18.43
2023-05-10T06:56:04.642Z,18.47
2023-05-10T06:57:08.772Z,18.33
2023-05-10T06:58:05.384Z,18.50
2023-05-10T06:59:04.414Z,18.67
2023-05-10T07:00:04.374Z,18.70
2023-05-10T07:01:04.461Z,18.76
2023-05-10T07:02:04.380Z,19.02
2023-05-10T07:03:04.395Z,18.94
2023-05-10T07:04:04.323Z,19.10
2023-05-10T07:05:04.291Z,19.33
2023-05-10T07:06:04.306Z,19.51
2023-05-10T07:07:04.282Z,19.36
2023-05-10T07:08:04.296Z,19.50
2023-05-10T07:09:04.249Z,19.73
2023-05-10T07:10:04.240Z,19.66
2023-05-10T07:11:04.327Z,19.65
2023-05-10T07:12:04.267Z,19.88
2023-05-10T07:13:04.304Z,20.09
2023-05-10T07:14:04.214Z,20.16
2023-05-10T07:15:04.184Z,20.33
2023-05-10T07:16:04.212Z,19.87
2023-05-10T07:17:04.184Z,19.93
2023-05-10T07:18:04.356Z,19.98
2023-05-10T07:19:04.135Z,20.03
2023-05-10T07:20:04.210Z,19.95
2023-05-10T07:21:04.159Z,20.00
2023-05-10T07:22:04.114Z,20.12
2023-05-10T07:23:04.116Z,19.97
2023-05-10T07:24:04.096Z,20.12
2023-05-10T07:25:04.080Z,20.27
2023-05-10T07:26:04.073Z,20.46
2023-05-10T07:27:04.063Z,20.91
2023-05-10T07:28:04.041Z,21.21
2023-05-10T07:29:04.027Z,21.39
2023-05-10T07:30:04.019Z,21.01
2023-05-10T07:31:04.105Z,20.68
2023-05-10T07:32:04.007Z,20.69
2023-05-10T07:33:04.021Z,21.02
2023-05-10T07:34:03.980Z,21.41
2023-05-10T07:35:03.995Z,21.74
2023-05-10T07:36:03.964Z,22.09
2023-05-10T07:37:03.991Z,22.41
2023-05-10T07:38:03.940Z,22.39
2023-05-10T07:39:03.928Z,22.10
2023-05-10T07:40:03.951Z,21.42
2023-05-10T07:41:03.899Z,21.29
2023-05-10T07:42:03.891Z,21.54
2023-05-10T07:43:03.909Z,21.74
2023-05-10T07:44:03.870Z,21.78
2023-05-10T07:45:03.970Z,21.64
2023-05-10T07:46:03.861Z,21.94
2023-05-10T07:47:03.839Z,22.10
2023-05-10T07:48:03.865Z,22.19
2023-05-10T07:49:03.854Z,22.35
2023-05-10T07:50:03.873Z,22.34
2023-05-10T07:51:03.789Z,22.32
2023-05-10T07:52:03.785Z,22.27
2023-05-10T07:53:03.771Z,22.28
2023-05-10T07:54:03.777Z,22.32
2023-05-10T07:55:03.747Z,22.32
2023-05-10T07:56:03.746Z,22.44
2023-05-10T07:57:03.726Z,22.67
2023-05-10T07:58:03.719Z,22.56
2023-05-10T07:59:03.734Z,22.46
2023-05-10T08:00:03.703Z,22.77
2023-05-10T08:01:03.708Z,22.86
2023-05-10T08:02:03.741Z,22.83
2023-05-10T08:03:03.890Z,23.05
2023-05-10T08:04:03.790Z,23.27
2023-05-10T08:05:03.644Z,23.14
2023-05-10T08:06:03.638Z,23.15
2023-05-10T08:07:03.633Z,23.19
2023-05-10T08:08:03.636Z,22.71
2023-05-10T08:09:03.606Z,22.49
2023-05-10T08:10:03.605Z,22.77
2023-05-10T08:11:03.583Z,23.07
2023-05-10T08:12:03.573Z,23.38
2023-05-10T08:13:03.578Z,23.64
2023-05-10T08:14:03.607Z,23.75
2023-05-10T08:15:03.655Z,23.97
2023-05-10T08:16:03.572Z,24.16
2023-05-10T08:17:03.524Z,24.45
2023-05-10T08:18:03.579Z,24.67
2023-05-10T08:19:03.687Z,24.69
2023-05-10T08:20:03.499Z,24.71
2023-05-10T08:21:03.477Z,24.34
2023-05-10T08:22:03.499Z,24.27
2023-05-10T08:23:03.481Z,24.14
2023-05-10T08:24:03.446Z,24.32
2023-05-10T08:25:03.440Z,24.41
2023-05-10T08:26:03.424Z,24.76
2023-05-10T08:27:03.474Z,24.85
2023-05-10T08:28:03.400Z,24.75
2023-05-10T08:29:03.423Z,24.77
2023-05-10T08:30:03.391Z,24.75
2023-05-10T08:31:03.438Z,24.67
2023-05-10T08:32:03.358Z,24.61
2023-05-10T08:33:03.409Z,24.54
2023-05-10T08:34:03.347Z,24.50
2023-05-10T08:35:03.344Z,24.27
2023-05-10T08:36:03.321Z,24.42
2023-05-10T08:37:03.306Z,24.59
2023-05-10T08:38:03.308Z,24.77
2023-05-10T08:39:03.287Z,24.87
2023-05-10T08:40:03.312Z,24.90
2023-05-10T08:41:03.285Z,24.83
2023-05-10T08:42:03.298Z,25.13
2023-05-10T08:43:03.291Z,25.13
2023-05-10T08:44:03.238Z,25.16
2023-05-10T08:45:03.224Z,25.20
2023-05-10T08:46:03.226Z,25.24
2023-05-10T08:47:03.278Z,25.06
2023-05-10T08:48:03.310Z,25.13
2023-05-10T08:49:03.191Z,25.34
2023-05-10T08:50:03.198Z,25.46
2023-05-10T08:51:03.179Z,25.69
2023-05-10T08:52:03.156Z,25.56
2023-05-10T08:53:03.152Z,24.90
2023-05-10T08:54:03.133Z,24.75
2023-05-10T08:55:03.123Z,24.77
2023-05-10T08:56:03.113Z,25.12
2023-05-10T08:57:03.128Z,25.25
2023-05-10T08:58:03.089Z,25.06
2023-05-10T08:59:03.086Z,24.38
2023-05-10T09:00:03.073Z,23.90
2023-05-10T09:01:03.106Z,24.05
2023-05-10T09:02:03.128Z,23.95
2023-05-10T09:03:03.129Z,23.95
2023-05-10T09:04:03.117Z,23.80
2023-05-10T09:05:03.125Z,23.85
2023-05-10T09:06:03.012Z,24.02
2023-05-10T09:07:03.000Z,24.22
2023-05-10T09:08:02.988Z,23.86
2023-05-10T09:09:03.007Z,23.70
2023-05-10T09:10:02.977Z,23.76
2023-05-10T09:11:02.968Z,23.92
2023-05-10T09:12:02.952Z,23.86
2023-05-10T09:13:02.948Z,24.12
2023-05-10T09:14:02.972Z,24.19
2023-05-10T09:15:02.918Z,24.41
2023-05-10T09:16:13.523Z,24.71
2023-05-10T09:17:04.009Z,24.71
2023-05-10T09:18:02.948Z,24.79
2023-05-10T09:19:02.978Z,24.97
2023-05-10T09:20:02.874Z,24.69
2023-05-10T09:21:02.901Z,24.56
2023-05-10T09:22:02.841Z,24.77
2023-05-10T09:23:02.840Z,24.88
2023-05-10T09:24:02.823Z,25.32
2023-05-10T09:25:02.830Z,25.69
2023-05-10T09:26:02.875Z,25.67
2023-05-10T09:27:02.807Z,25.83
2023-05-10T09:28:02.790Z,25.82
2023-05-10T09:29:02.857Z,25.86
2023-05-10T09:30:02.767Z,25.56
2023-05-10T09:31:02.853Z,25.25
2023-05-10T09:32:02.761Z,25.09
2023-05-10T09:33:02.805Z,25.24
2023-05-10T09:34:02.720Z,25.30
2023-05-10T09:35:02.737Z,25.54
2023-05-10T09:36:02.697Z,25.77
2023-05-10T09:37:02.701Z,26.08
2023-05-10T09:38:02.683Z,25.86
2023-05-10T09:39:02.665Z,25.82
2023-05-10T09:40:02.668Z,25.62
2023-05-10T09:41:02.655Z,25.61
2023-05-10T09:42:02.642Z,25.67
2023-05-10T09:43:02.629Z,25.77
2023-05-10T09:44:02.611Z,26.08
2023-05-10T09:45:02.603Z,26.04
2023-05-10T09:46:02.650Z,25.34
2023-05-10T09:47:02.595Z,25.00
2023-05-10T09:48:02.605Z,24.75
2023-05-10T09:49:02.639Z,24.85
2023-05-10T09:50:02.560Z,25.07
2023-05-10T09:51:02.570Z,25.32
2023-05-10T09:52:02.533Z,25.61
2023-05-10T09:53:02.522Z,25.72
2023-05-10T09:54:02.522Z,25.44
2023-05-10T09:55:02.504Z,25.47
2023-05-10T09:56:02.512Z,25.68
2023-05-10T09:57:02.528Z,25.99
2023-05-10T09:58:02.482Z,25.82
2023-05-10T09:59:02.475Z,25.80
2023-05-10T10:00:02.479Z,25.80
2023-05-10T10:01:02.460Z,25.89
2023-05-10T10:02:02.568Z,26.20
2023-05-10T10:03:02.460Z,26.12
2023-05-10T10:04:02.431Z,26.39
2023-05-10T10:05:02.541Z,26.25
2023-05-10T10:06:02.394Z,26.18
2023-05-10T10:07:02.459Z,25.94
2023-05-10T10:08:02.441Z,25.99
2023-05-10T10:09:02.359Z,25.84
2023-05-10T10:10:02.394Z,25.79
2023-05-10T10:11:02.349Z,25.86
2023-05-10T10:12:02.347Z,25.80
2023-05-10T10:13:02.340Z,26.06
2023-05-10T10:14:02.322Z,26.29
2023-05-10T10:15:02.318Z,26.49
2023-05-10T10:16:02.323Z,26.64
2023-05-10T10:17:07.726Z,26.81
2023-05-10T10:18:03.286Z,26.81
2023-05-10T10:19:02.432Z,27.06
2023-05-10T10:20:02.256Z,27.04
2023-05-10T10:21:02.243Z,26.73
2023-05-10T10:22:02.241Z,26.62
2023-05-10T10:23:02.233Z,25.99
2023-05-10T10:24:02.251Z,25.34
2023-05-10T10:25:02.196Z,24.77
2023-05-10T10:26:02.184Z,24.35
2023-05-10T10:27:02.177Z,24.10
2023-05-10T10:28:02.188Z,24.00
2023-05-10T10:29:02.158Z,23.86
2023-05-10T10:30:02.145Z,23.71
2023-05-10T10:31:02.166Z,23.64
2023-05-10T10:32:02.146Z,23.57
2023-05-10T10:33:05.622Z,23.32
2023-05-10T10:34:03.132Z,23.14
2023-05-10T10:35:02.095Z,23.19
2023-05-10T10:36:02.085Z,23.02
2023-05-10T10:37:02.097Z,22.96
2023-05-10T10:38:02.070Z,22.87
2023-05-10T10:39:02.068Z,22.75
2023-05-10T10:40:02.065Z,22.78
2023-05-10T10:41:02.032Z,22.60
2023-05-10T10:42:02.036Z,22.49
2023-05-10T10:43:02.018Z,22.38
2023-05-10T10:44:02.000Z,22.35
2023-05-10T10:45:01.985Z,22.39
2023-05-10T10:46:01.975Z,22.46
2023-05-10T10:47:02.174Z,22.39
2023-05-10T10:48:02.012Z,22.37
2023-05-10T10:49:01.951Z,22.31
2023-05-10T10:50:01.948Z,22.19
2023-05-10T10:51:01.943Z,22.12
2023-05-10T10:52:01.936Z,21.99
2023-05-10T10:53:01.935Z,21.92
2023-05-10T10:54:01.890Z,21.67
2023-05-10T10:55:01.902Z,21.39
2023-05-10T10:56:01.877Z,21.35
2023-05-10T10:57:01.885Z,21.32
2023-05-10T10:58:02.092Z,21.24
2023-05-10T10:59:01.834Z,21.16
2023-05-10T11:00:01.836Z,21.02
2023-05-10T11:01:01.873Z,21.05
2023-05-10T11:02:01.816Z,21.17
2023-05-10T11:03:01.904Z,21.23
2023-05-10T11:04:01.908Z,21.19
2023-05-10T11:05:01.775Z,21.20
2023-05-10T11:06:01.817Z,21.36
2023-05-10T11:07:01.744Z,21.45
2023-05-10T11:08:01.782Z,21.59
2023-05-10T11:09:01.722Z,21.61
2023-05-10T11:10:01.719Z,21.66
2023-05-10T11:11:01.748Z,21.74
2023-05-10T11:12:01.705Z,21.81
2023-05-10T11:13:01.682Z,21.71
2023-05-10T11:14:01.667Z,21.82
2023-05-10T11:15:01.672Z,21.83
2023-05-10T11:16:01.670Z,21.85
2023-05-10T11:17:01.641Z,21.81
2023-05-10T11:18:01.678Z,21.72
2023-05-10T11:19:01.646Z,21.74
2023-05-10T11:20:01.634Z,21.72
2023-05-10T11:21:01.590Z,21.78
2023-05-10T11:22:01.578Z,21.90
2023-05-10T11:23:01.592Z,21.94
2023-05-10T11:24:01.558Z,21.90
2023-05-10T11:25:01.596Z,21.92
2023-05-10T11:26:01.537Z,21.81
2023-05-10T11:27:01.553Z,21.79
2023-05-10T11:28:01.530Z,21.71
2023-05-10T11:29:01.519Z,21.72
2023-05-10T11:30:03.762Z,21.69
2023-05-10T11:31:01.618Z,21.61
2023-05-10T11:32:01.479Z,21.69
2023-05-10T11:33:01.650Z,21.66
2023-05-10T11:34:01.473Z,21.64
2023-05-10T11:35:01.439Z,21.67
2023-05-10T11:36:01.431Z,21.69
2023-05-10T11:37:01.432Z,21.66
2023-05-10T11:38:01.432Z,21.75
2023-05-10T11:39:01.431Z,21.79
2023-05-10T11:40:01.412Z,21.76
2023-05-10T11:41:01.377Z,21.90
2023-05-10T11:42:01.363Z,21.79
2023-05-10T11:43:01.445Z,21.81
2023-05-10T11:44:01.377Z,21.92
2023-05-10T11:45:01.339Z,21.91
2023-05-10T11:46:01.372Z,21.94
2023-05-10T11:47:01.313Z,21.95
2023-05-10T11:48:01.346Z,22.02
2023-05-10T11:49:01.363Z,22.09
2023-05-10T11:50:01.302Z,22.12
2023-05-10T11:51:01.270Z,22.19
2023-05-10T11:52:01.275Z,22.12
2023-05-10T11:53:01.291Z,22.10
2023-05-10T11:54:01.248Z,22.02
2023-05-10T11:55:01.230Z,21.94
2023-05-10T11:56:01.221Z,21.94
2023-05-10T11:57:01.253Z,21.95
2023-05-10T11:58:01.228Z,21.97
2023-05-10T11:59:01.204Z,21.90
2023-05-10T12:00:01.169Z,21.95
2023-05-10T12:01:01.161Z,21.95
2023-05-10T12:02:01.182Z,22.02
2023-05-10T12:03:01.354Z,21.97
2023-05-10T12:04:01.639Z,22.04
2023-05-10T12:05:01.321Z,22.06
2023-05-10T12:06:01.104Z,22.09
2023-05-10T12:07:01.126Z,22.19
2023-05-10T12:08:01.085Z,22.22
2023-05-10T12:09:01.087Z,22.34
2023-05-10T12:10:01.077Z,22.31
2023-05-10T12:11:01.103Z,22.23
2023-05-10T12:12:01.155Z,22.25
2023-05-10T12:13:01.054Z,22.23
2023-05-10T12:14:01.031Z,22.27
2023-05-10T12:15:01.034Z,22.31
2023-05-10T12:16:01.044Z,22.28
2023-05-10T12:17:01.005Z,22.35
2023-05-10T12:18:01.056Z,22.34
2023-05-10T12:19:01.016Z,22.28
2023-05-10T12:20:00.952Z,22.27
2023-05-10T12:21:00.958Z,22.22
2023-05-10T12:22:00.933Z,22.23
2023-05-10T12:23:00.934Z,22.22
2023-05-10T12:24:00.921Z,22.27
2023-05-10T12:25:00.902Z,22.34
2023-05-10T12:26:00.955Z,22.29
2023-05-10T12:27:00.880Z,22.27
2023-05-10T12:28:00.877Z,22.19
2023-05-10T12:29:00.859Z,22.29
2023-05-10T12:30:00.859Z,22.31
2023-05-10T12:31:00.906Z,22.32
2023-05-10T12:32:00.886Z,22.39
2023-05-10T12:33:00.897Z,22.38
2023-05-10T12:34:00.812Z,22.28
2023-05-10T12:35:00.822Z,22.19
2023-05-10T12:36:00.783Z,22.20
2023-05-10T12:37:00.778Z,22.22
2023-05-10T12:38:00.764Z,22.19
2023-05-10T12:39:00.752Z,22.31
2023-05-10T12:40:00.756Z,22.13
2023-05-10T12:41:00.769Z,22.14
2023-05-10T12:42:00.725Z,22.09
2023-05-10T12:43:00.721Z,22.17
2023-05-10T12:44:00.754Z,22.14
2023-05-10T12:45:00.701Z,22.10
2023-05-10T12:46:00.706Z,22.27
2023-05-10T12:47:00.690Z,22.32
2023-05-10T12:48:00.713Z,22.46
2023-05-10T12:49:08.928Z,22.56
2023-05-10T12:50:01.645Z,22.60
2023-05-10T12:51:00.627Z,22.57
2023-05-10T12:52:00.616Z,22.69